sensor_id;sensor_type;location;lat;lon;timestamp;P1;durP1;ratioP1;P2;durP2;ratioP2
44646;SDS011;56315;-33.902;151.160;2023-05-07T00:00:03;4.00;;;0.80;;
44646;SDS011;56315;-33.902;151.160;2023-05-07T00:02:34;1.92;;;0.73;;
44646;SDS011;56315;-33.902;151.160;2023-05-07T00:05:03;1.13;;;0.60;;
44646;SDS011;56315;-33.902;151.160;2023-05-07T00:07:30;1.33;;;0.70;;
44646;SDS011;56315;-33.902;151.160;2023-05-07T00:09:58;1.25;;;0.70;;
44646;SDS011;56315;-33.902;151.160;2023-05-07T00:12:25;2.53;;;1.00;;
44646;SDS011;56315;-33.902;151.160;2023-05-07T00:14:52;2.78;;;1.30;;
44646;SDS011;56315;-33.902;151.160;2023-05-07T00:17:19;4.40;;;1.27;;
44646;SDS011;56315;-33.902;151.160;2023-05-07T00:19:46;3.25;;;0.90;;
44646;SDS011;56315;-33.902;151.160;2023-05-07T00:22:14;3.90;;;1.25;;
44646;SDS011;56315;-33.902;151.160;2023-05-07T00:24:41;1.60;;;0.90;;
44646;SDS011;56315;-33.902;151.160;2023-05-07T00:27:08;2.15;;;1.00;;
44646;SDS011;56315;-33.902;151.160;2023-05-07T00:29:36;1.63;;;0.93;;
44646;SDS011;56315;-33.902;151.160;2023-05-07T00:32:03;2.67;;;1.13;;
44646;SDS011;56315;-33.902;151.160;2023-05-07T00:34:30;2.67;;;1.20;;
44646;SDS011;56315;-33.902;151.160;2023-05-07T00:36:57;2.58;;;1.10;;
44646;SDS011;56315;-33.902;151.160;2023-05-07T00:39:25;4.47;;;1.30;;
44646;SDS011;56315;-33.902;151.160;2023-05-07T00:41:52;4.18;;;0.90;;
44646;SDS011;56315;-33.902;151.160;2023-05-07T00:44:19;2.33;;;0.80;;
44646;SDS011;56315;-33.902;151.160;2023-05-07T00:46:46;2.45;;;0.80;;
44646;SDS011;56315;-33.902;151.160;2023-05-07T00:49:15;2.97;;;0.98;;
44646;SDS011;56315;-33.902;151.160;2023-05-07T00:51:42;6.43;;;1.33;;
44646;SDS011;56315;-33.902;151.160;2023-05-07T00:54:11;3.45;;;1.15;;
44646;SDS011;56315;-33.902;151.160;2023-05-07T00:56:39;3.85;;;1.40;;
44646;SDS011;56315;-33.902;151.160;2023-05-07T00:59:06;2.45;;;0.90;;
44646;SDS011;56315;-33.902;151.160;2023-05-07T01:01:34;6.93;;;1.63;;
44646;SDS011;56315;-33.902;151.160;2023-05-07T01:04:02;3.80;;;1.48;;
44646;SDS011;56315;-33.902;151.160;2023-05-07T01:06:29;2.55;;;1.13;;
44646;SDS011;56315;-33.902;151.160;2023-05-07T01:08:58;2.15;;;1.02;;
44646;SDS011;56315;-33.902;151.160;2023-05-07T01:11:26;2.22;;;1.10;;
44646;SDS011;56315;-33.902;151.160;2023-05-07T01:13:53;2.47;;;0.80;;
44646;SDS011;56315;-33.902;151.160;2023-05-07T01:16:20;2.92;;;1.20;;
44646;SDS011;56315;-33.902;151.160;2023-05-07T01:18:48;2.80;;;1.00;;
44646;SDS011;56315;-33.902;151.160;2023-05-07T01:21:16;2.15;;;1.13;;
44646;SDS011;56315;-33.902;151.160;2023-05-07T01:23:49;2.90;;;1.25;;
44646;SDS011;56315;-33.902;151.160;2023-05-07T01:26:16;2.97;;;1.25;;
44646;SDS011;56315;-33.902;151.160;2023-05-07T01:28:45;2.60;;;1.10;;
44646;SDS011;56315;-33.902;151.160;2023-05-07T01:31:12;3.88;;;1.60;;
44646;SDS011;56315;-33.902;151.160;2023-05-07T01:33:41;2.35;;;1.50;;
44646;SDS011;56315;-33.902;151.160;2023-05-07T01:36:10;3.00;;;1.77;;
44646;SDS011;56315;-33.902;151.160;2023-05-07T01:38:39;3.90;;;2.13;;
44646;SDS011;56315;-33.902;151.160;2023-05-07T01:41:07;3.05;;;1.63;;
44646;SDS011;56315;-33.902;151.160;2023-05-07T01:43:35;4.80;;;1.45;;
44646;SDS011;56315;-33.902;151.160;2023-05-07T01:46:02;1.60;;;1.15;;
44646;SDS011;56315;-33.902;151.160;2023-05-07T01:48:29;2.42;;;1.30;;
44646;SDS011;56315;-33.902;151.160;2023-05-07T01:50:59;3.20;;;1.27;;
44646;SDS011;56315;-33.902;151.160;2023-05-07T01:53:27;3.10;;;1.25;;
44646;SDS011;56315;-33.902;151.160;2023-05-07T01:55:54;2.85;;;1.75;;
44646;SDS011;56315;-33.902;151.160;2023-05-07T01:58:21;2.20;;;1.30;;
44646;SDS011;56315;-33.902;151.160;2023-05-07T02:00:49;3.03;;;1.10;;
44646;SDS011;56315;-33.902;151.160;2023-05-07T02:03:17;2.03;;;0.90;;
44646;SDS011;56315;-33.902;151.160;2023-05-07T02:05:46;1.05;;;0.77;;
44646;SDS011;56315;-33.902;151.160;2023-05-07T02:08:14;2.05;;;1.00;;
44646;SDS011;56315;-33.902;151.160;2023-05-07T02:10:41;2.15;;;1.23;;
44646;SDS011;56315;-33.902;151.160;2023-05-07T02:13:08;2.63;;;1.02;;
44646;SDS011;56315;-33.902;151.160;2023-05-07T02:15:36;1.70;;;0.95;;
44646;SDS011;56315;-33.902;151.160;2023-05-07T02:18:04;2.05;;;0.70;;
44646;SDS011;56315;-33.902;151.160;2023-05-07T02:20:34;3.10;;;0.80;;
44646;SDS011;56315;-33.902;151.160;2023-05-07T02:23:01;2.45;;;0.85;;
44646;SDS011;56315;-33.902;151.160;2023-05-07T02:25:29;2.05;;;0.90;;
44646;SDS011;56315;-33.902;151.160;2023-05-07T02:27:56;1.10;;;0.60;;
44646;SDS011;56315;-33.902;151.160;2023-05-07T02:30:24;2.00;;;1.00;;
44646;SDS011;56315;-33.902;151.160;2023-05-07T02:32:51;1.17;;;0.55;;
44646;SDS011;56315;-33.902;151.160;2023-05-07T02:35:18;0.80;;;0.52;;
44646;SDS011;56315;-33.902;151.160;2023-05-07T02:37:46;1.20;;;0.80;;
44646;SDS011;56315;-33.902;151.160;2023-05-07T02:40:13;1.50;;;0.73;;
44646;SDS011;56315;-33.902;151.160;2023-05-07T02:42:40;2.03;;;0.82;;
44646;SDS011;56315;-33.902;151.160;2023-05-07T02:45:08;2.35;;;0.60;;
44646;SDS011;56315;-33.902;151.160;2023-05-07T02:47:35;0.93;;;0.82;;
44646;SDS011;56315;-33.902;151.160;2023-05-07T02:50:03;0.63;;;0.50;;
44646;SDS011;56315;-33.902;151.160;2023-05-07T02:52:30;0.75;;;0.70;;
44646;SDS011;56315;-33.902;151.160;2023-05-07T02:54:58;1.10;;;0.43;;
44646;SDS011;56315;-33.902;151.160;2023-05-07T02:57:25;0.40;;;0.30;;
44646;SDS011;56315;-33.902;151.160;2023-05-07T02:59:52;1.25;;;0.50;;
44646;SDS011;56315;-33.902;151.160;2023-05-07T03:02:19;1.42;;;0.40;;
44646;SDS011;56315;-33.902;151.160;2023-05-07T03:04:47;1.13;;;0.50;;
44646;SDS011;56315;-33.902;151.160;2023-05-07T03:07:14;0.82;;;0.60;;
44646;SDS011;56315;-33.902;151.160;2023-05-07T03:09:41;2.58;;;0.57;;
44646;SDS011;56315;-33.902;151.160;2023-05-07T03:12:10;3.35;;;1.05;;
44646;SDS011;56315;-33.902;151.160;2023-05-07T03:14:38;2.05;;;0.55;;
44646;SDS011;56315;-33.902;151.160;2023-05-07T03:17:05;2.70;;;0.70;;
44646;SDS011;56315;-33.902;151.160;2023-05-07T03:19:32;2.00;;;0.80;;
44646;SDS011;56315;-33.902;151.160;2023-05-07T03:22:00;3.03;;;1.23;;
44646;SDS011;56315;-33.902;151.160;2023-05-07T03:24:27;3.80;;;1.17;;
44646;SDS011;56315;-33.902;151.160;2023-05-07T03:26:54;2.83;;;1.00;;
44646;SDS011;56315;-33.902;151.160;2023-05-07T03:29:23;1.10;;;0.60;;
44646;SDS011;56315;-33.902;151.160;2023-05-07T03:31:50;2.78;;;0.90;;
44646;SDS011;56315;-33.902;151.160;2023-05-07T03:34:17;2.03;;;0.98;;
44646;SDS011;56315;-33.902;151.160;2023-05-07T03:36:48;0.45;;;0.40;;
44646;SDS011;56315;-33.902;151.160;2023-05-07T03:39:15;1.50;;;0.50;;
44646;SDS011;56315;-33.902;151.160;2023-05-07T03:41:42;1.70;;;0.30;;
44646;SDS011;56315;-33.902;151.160;2023-05-07T03:44:10;4.43;;;0.70;;
44646;SDS011;56315;-33.902;151.160;2023-05-07T03:46:37;2.00;;;0.70;;
44646;SDS011;56315;-33.902;151.160;2023-05-07T03:49:04;1.30;;;0.40;;
44646;SDS011;56315;-33.902;151.160;2023-05-07T03:51:32;0.73;;;0.40;;
44646;SDS011;56315;-33.902;151.160;2023-05-07T03:53:59;2.20;;;1.20;;
44646;SDS011;56315;-33.902;151.160;2023-05-07T03:56:26;0.60;;;0.50;;
44646;SDS011;56315;-33.902;151.160;2023-05-07T03:58:53;1.27;;;0.60;;
44646;SDS011;56315;-33.902;151.160;2023-05-07T04:01:21;1.20;;;0.90;;
44646;SDS011;56315;-33.902;151.160;2023-05-07T04:03:48;2.92;;;1.10;;
44646;SDS011;56315;-33.902;151.160;2023-05-07T04:06:18;1.88;;;1.02;;
44646;SDS011;56315;-33.902;151.160;2023-05-07T04:08:46;2.92;;;0.80;;
44646;SDS011;56315;-33.902;151.160;2023-05-07T04:11:13;2.17;;;0.80;;
44646;SDS011;56315;-33.902;151.160;2023-05-07T04:13:40;1.42;;;0.70;;
44646;SDS011;56315;-33.902;151.160;2023-05-07T04:16:07;1.58;;;0.57;;
44646;SDS011;56315;-33.902;151.160;2023-05-07T04:18:35;1.30;;;0.60;;
44646;SDS011;56315;-33.902;151.160;2023-05-07T04:21:02;1.50;;;0.82;;
44646;SDS011;56315;-33.902;151.160;2023-05-07T04:23:30;2.15;;;0.93;;
44646;SDS011;56315;-33.902;151.160;2023-05-07T04:25:58;2.40;;;0.85;;
44646;SDS011;56315;-33.902;151.160;2023-05-07T04:28:26;2.08;;;0.70;;
44646;SDS011;56315;-33.902;151.160;2023-05-07T04:30:54;2.35;;;0.45;;
44646;SDS011;56315;-33.902;151.160;2023-05-07T04:33:21;0.98;;;0.40;;
44646;SDS011;56315;-33.902;151.160;2023-05-07T04:35:48;1.80;;;0.50;;
44646;SDS011;56315;-33.902;151.160;2023-05-07T04:38:15;0.90;;;0.40;;
44646;SDS011;56315;-33.902;151.160;2023-05-07T04:40:44;0.90;;;0.45;;
44646;SDS011;56315;-33.902;151.160;2023-05-07T04:43:12;2.53;;;0.50;;
44646;SDS011;56315;-33.902;151.160;2023-05-07T04:45:39;0.65;;;0.40;;
44646;SDS011;56315;-33.902;151.160;2023-05-07T04:48:07;0.73;;;0.40;;
44646;SDS011;56315;-33.902;151.160;2023-05-07T04:50:38;1.00;;;0.40;;
44646;SDS011;56315;-33.902;151.160;2023-05-07T04:53:05;1.20;;;0.40;;
44646;SDS011;56315;-33.902;151.160;2023-05-07T04:55:32;2.25;;;0.45;;
44646;SDS011;56315;-33.902;151.160;2023-05-07T04:57:59;1.13;;;0.32;;
44646;SDS011;56315;-33.902;151.160;2023-05-07T05:00:27;1.20;;;0.40;;
44646;SDS011;56315;-33.902;151.160;2023-05-07T05:02:54;1.33;;;0.30;;
44646;SDS011;56315;-33.902;151.160;2023-05-07T05:05:22;1.27;;;0.40;;
44646;SDS011;56315;-33.902;151.160;2023-05-07T05:07:49;1.27;;;0.40;;
44646;SDS011;56315;-33.902;151.160;2023-05-07T05:10:17;1.35;;;0.40;;
44646;SDS011;56315;-33.902;151.160;2023-05-07T05:12:44;1.75;;;0.45;;
44646;SDS011;56315;-33.902;151.160;2023-05-07T05:15:12;0.57;;;0.30;;
44646;SDS011;56315;-33.902;151.160;2023-05-07T05:17:39;0.85;;;0.30;;
44646;SDS011;56315;-33.902;151.160;2023-05-07T05:20:06;0.85;;;0.38;;
44646;SDS011;56315;-33.902;151.160;2023-05-07T05:22:36;0.90;;;0.32;;
44646;SDS011;56315;-33.902;151.160;2023-05-07T05:25:03;1.05;;;0.47;;
44646;SDS011;56315;-33.902;151.160;2023-05-07T05:27:31;0.68;;;0.45;;
44646;SDS011;56315;-33.902;151.160;2023-05-07T05:29:58;1.35;;;0.40;;
44646;SDS011;56315;-33.902;151.160;2023-05-07T05:32:25;0.75;;;0.30;;
44646;SDS011;56315;-33.902;151.160;2023-05-07T05:34:52;1.48;;;0.30;;
44646;SDS011;56315;-33.902;151.160;2023-05-07T05:37:20;1.25;;;0.55;;
44646;SDS011;56315;-33.902;151.160;2023-05-07T05:39:47;0.90;;;0.35;;
44646;SDS011;56315;-33.902;151.160;2023-05-07T05:42:14;1.13;;;0.32;;
44646;SDS011;56315;-33.902;151.160;2023-05-07T05:44:41;0.70;;;0.40;;
44646;SDS011;56315;-33.902;151.160;2023-05-07T05:47:09;1.60;;;0.50;;
44646;SDS011;56315;-33.902;151.160;2023-05-07T05:49:36;1.60;;;0.43;;
44646;SDS011;56315;-33.902;151.160;2023-05-07T05:52:03;2.22;;;0.52;;
44646;SDS011;56315;-33.902;151.160;2023-05-07T05:54:31;2.97;;;2.20;;
44646;SDS011;56315;-33.902;151.160;2023-05-07T05:56:58;0.93;;;0.40;;
44646;SDS011;56315;-33.902;151.160;2023-05-07T05:59:25;1.85;;;0.57;;
44646;SDS011;56315;-33.902;151.160;2023-05-07T06:01:53;0.82;;;0.50;;
44646;SDS011;56315;-33.902;151.160;2023-05-07T06:04:20;1.30;;;0.50;;
44646;SDS011;56315;-33.902;151.160;2023-05-07T06:06:47;0.73;;;0.45;;
44646;SDS011;56315;-33.902;151.160;2023-05-07T06:09:15;1.63;;;0.45;;
44646;SDS011;56315;-33.902;151.160;2023-05-07T06:11:42;1.10;;;0.70;;
44646;SDS011;56315;-33.902;151.160;2023-05-07T06:14:09;1.30;;;0.80;;
44646;SDS011;56315;-33.902;151.160;2023-05-07T06:16:36;2.20;;;0.70;;
44646;SDS011;56315;-33.902;151.160;2023-05-07T06:19:04;1.27;;;1.00;;
44646;SDS011;56315;-33.902;151.160;2023-05-07T06:21:31;0.60;;;0.55;;
44646;SDS011;56315;-33.902;151.160;2023-05-07T06:23:58;0.85;;;0.55;;
44646;SDS011;56315;-33.902;151.160;2023-05-07T06:26:25;1.00;;;0.90;;
44646;SDS011;56315;-33.902;151.160;2023-05-07T06:28:52;0.70;;;0.60;;
44646;SDS011;56315;-33.902;151.160;2023-05-07T06:31:20;1.20;;;0.77;;
44646;SDS011;56315;-33.902;151.160;2023-05-07T06:33:47;1.23;;;0.70;;
44646;SDS011;56315;-33.902;151.160;2023-05-07T06:36:15;1.58;;;0.90;;
44646;SDS011;56315;-33.902;151.160;2023-05-07T06:38:42;1.20;;;0.73;;
44646;SDS011;56315;-33.902;151.160;2023-05-07T06:41:10;1.02;;;0.73;;
44646;SDS011;56315;-33.902;151.160;2023-05-07T06:43:37;1.60;;;0.93;;
44646;SDS011;56315;-33.902;151.160;2023-05-07T06:46:04;2.20;;;0.90;;
44646;SDS011;56315;-33.902;151.160;2023-05-07T06:48:32;0.98;;;0.80;;
44646;SDS011;56315;-33.902;151.160;2023-05-07T06:51:00;2.92;;;2.28;;
44646;SDS011;56315;-33.902;151.160;2023-05-07T06:53:27;1.23;;;1.13;;
44646;SDS011;56315;-33.902;151.160;2023-05-07T06:55:56;2.30;;;1.20;;
44646;SDS011;56315;-33.902;151.160;2023-05-07T06:58:23;2.30;;;0.85;;
44646;SDS011;56315;-33.902;151.160;2023-05-07T07:00:50;1.38;;;0.95;;
44646;SDS011;56315;-33.902;151.160;2023-05-07T07:03:18;2.00;;;1.10;;
44646;SDS011;56315;-33.902;151.160;2023-05-07T07:05:45;1.30;;;0.90;;
44646;SDS011;56315;-33.902;151.160;2023-05-07T07:08:12;0.60;;;0.50;;
44646;SDS011;56315;-33.902;151.160;2023-05-07T07:10:40;0.77;;;0.70;;
44646;SDS011;56315;-33.902;151.160;2023-05-07T07:13:07;0.98;;;0.68;;
44646;SDS011;56315;-33.902;151.160;2023-05-07T07:15:34;0.90;;;0.73;;
44646;SDS011;56315;-33.902;151.160;2023-05-07T07:18:01;1.13;;;0.73;;
44646;SDS011;56315;-33.902;151.160;2023-05-07T07:20:29;0.93;;;0.77;;
44646;SDS011;56315;-33.902;151.160;2023-05-07T07:22:56;0.65;;;0.60;;
44646;SDS011;56315;-33.902;151.160;2023-05-07T07:25:23;1.10;;;1.00;;
44646;SDS011;56315;-33.902;151.160;2023-05-07T07:27:51;0.93;;;0.82;;
44646;SDS011;56315;-33.902;151.160;2023-05-07T07:30:18;1.55;;;1.27;;
44646;SDS011;56315;-33.902;151.160;2023-05-07T07:32:45;5.03;;;3.80;;
44646;SDS011;56315;-33.902;151.160;2023-05-07T07:35:12;5.63;;;3.28;;
44646;SDS011;56315;-33.902;151.160;2023-05-07T07:37:39;5.57;;;4.30;;
44646;SDS011;56315;-33.902;151.160;2023-05-07T07:40:07;2.47;;;1.90;;
44646;SDS011;56315;-33.902;151.160;2023-05-07T07:42:35;2.47;;;1.60;;
44646;SDS011;56315;-33.902;151.160;2023-05-07T07:45:02;2.28;;;1.90;;
44646;SDS011;56315;-33.902;151.160;2023-05-07T07:47:29;2.80;;;2.25;;
44646;SDS011;56315;-33.902;151.160;2023-05-07T07:49:57;1.70;;;1.30;;
44646;SDS011;56315;-33.902;151.160;2023-05-07T07:52:24;3.35;;;1.90;;
44646;SDS011;56315;-33.902;151.160;2023-05-07T07:54:51;2.22;;;1.20;;
44646;SDS011;56315;-33.902;151.160;2023-05-07T07:57:18;1.70;;;0.93;;
44646;SDS011;56315;-33.902;151.160;2023-05-07T07:59:45;1.30;;;0.82;;
44646;SDS011;56315;-33.902;151.160;2023-05-07T08:02:13;0.65;;;0.60;;
44646;SDS011;56315;-33.902;151.160;2023-05-07T08:04:40;1.63;;;0.90;;
44646;SDS011;56315;-33.902;151.160;2023-05-07T08:07:09;1.55;;;1.10;;
44646;SDS011;56315;-33.902;151.160;2023-05-07T08:09:39;1.27;;;0.85;;
44646;SDS011;56315;-33.902;151.160;2023-05-07T08:12:07;1.48;;;1.00;;
44646;SDS011;56315;-33.902;151.160;2023-05-07T08:14:34;0.73;;;0.60;;
44646;SDS011;56315;-33.902;151.160;2023-05-07T08:17:02;1.23;;;0.80;;
44646;SDS011;56315;-33.902;151.160;2023-05-07T08:19:29;1.08;;;0.60;;
44646;SDS011;56315;-33.902;151.160;2023-05-07T08:21:57;0.98;;;0.63;;
44646;SDS011;56315;-33.902;151.160;2023-05-07T08:24:24;2.58;;;1.10;;
44646;SDS011;56315;-33.902;151.160;2023-05-07T08:26:51;0.68;;;0.63;;
44646;SDS011;56315;-33.902;151.160;2023-05-07T08:29:18;1.20;;;0.80;;
44646;SDS011;56315;-33.902;151.160;2023-05-07T08:31:46;1.00;;;0.63;;
44646;SDS011;56315;-33.902;151.160;2023-05-07T08:34:13;0.77;;;0.63;;
44646;SDS011;56315;-33.902;151.160;2023-05-07T08:36:41;1.20;;;0.70;;
44646;SDS011;56315;-33.902;151.160;2023-05-07T08:39:08;1.33;;;0.90;;
44646;SDS011;56315;-33.902;151.160;2023-05-07T08:41:35;0.90;;;0.50;;
44646;SDS011;56315;-33.902;151.160;2023-05-07T08:44:03;2.33;;;0.52;;
44646;SDS011;56315;-33.902;151.160;2023-05-07T08:46:37;0.98;;;0.57;;
44646;SDS011;56315;-33.902;151.160;2023-05-07T08:49:05;0.77;;;0.60;;
44646;SDS011;56315;-33.902;151.160;2023-05-07T08:51:33;0.95;;;0.60;;
44646;SDS011;56315;-33.902;151.160;2023-05-07T08:54:01;2.17;;;0.90;;
44646;SDS011;56315;-33.902;151.160;2023-05-07T08:56:30;2.38;;;1.20;;
44646;SDS011;56315;-33.902;151.160;2023-05-07T08:58:57;0.90;;;0.85;;
44646;SDS011;56315;-33.902;151.160;2023-05-07T09:01:24;1.13;;;0.82;;
44646;SDS011;56315;-33.902;151.160;2023-05-07T09:03:52;1.20;;;0.98;;
44646;SDS011;56315;-33.902;151.160;2023-05-07T09:06:20;1.55;;;1.00;;
44646;SDS011;56315;-33.902;151.160;2023-05-07T09:08:51;0.93;;;0.82;;
44646;SDS011;56315;-33.902;151.160;2023-05-07T09:11:20;2.03;;;1.42;;
44646;SDS011;56315;-33.902;151.160;2023-05-07T09:13:48;1.67;;;1.10;;
44646;SDS011;56315;-33.902;151.160;2023-05-07T09:16:31;1.40;;;1.17;;
44646;SDS011;56315;-33.902;151.160;2023-05-07T09:18:58;1.00;;;0.90;;
44646;SDS011;56315;-33.902;151.160;2023-05-07T09:21:26;1.67;;;0.98;;
44646;SDS011;56315;-33.902;151.160;2023-05-07T09:23:54;1.63;;;1.20;;
44646;SDS011;56315;-33.902;151.160;2023-05-07T09:26:22;1.52;;;0.98;;
44646;SDS011;56315;-33.902;151.160;2023-05-07T09:28:50;1.70;;;1.10;;
44646;SDS011;56315;-33.902;151.160;2023-05-07T09:31:18;2.28;;;1.10;;
44646;SDS011;56315;-33.902;151.160;2023-05-07T09:33:45;1.23;;;0.90;;
44646;SDS011;56315;-33.902;151.160;2023-05-07T09:36:12;1.27;;;0.80;;
44646;SDS011;56315;-33.902;151.160;2023-05-07T09:38:40;0.82;;;0.60;;
44646;SDS011;56315;-33.902;151.160;2023-05-07T09:41:09;1.55;;;0.50;;
44646;SDS011;56315;-33.902;151.160;2023-05-07T09:43:38;0.82;;;0.40;;
44646;SDS011;56315;-33.902;151.160;2023-05-07T09:46:13;0.63;;;0.38;;
44646;SDS011;56315;-33.902;151.160;2023-05-07T09:48:43;1.50;;;0.40;;
44646;SDS011;56315;-33.902;151.160;2023-05-07T09:51:29;0.65;;;0.40;;
44646;SDS011;56315;-33.902;151.160;2023-05-07T09:54:02;1.33;;;0.70;;
44646;SDS011;56315;-33.902;151.160;2023-05-07T09:56:30;1.55;;;0.90;;
44646;SDS011;56315;-33.902;151.160;2023-05-07T09:59:00;1.33;;;0.80;;
44646;SDS011;56315;-33.902;151.160;2023-05-07T10:01:30;2.63;;;1.48;;
44646;SDS011;56315;-33.902;151.160;2023-05-07T10:03:59;0.95;;;0.70;;
44646;SDS011;56315;-33.902;151.160;2023-05-07T10:06:29;1.20;;;0.98;;
44646;SDS011;56315;-33.902;151.160;2023-05-07T10:08:56;1.08;;;0.73;;
44646;SDS011;56315;-33.902;151.160;2023-05-07T10:11:24;0.90;;;0.68;;
44646;SDS011;56315;-33.902;151.160;2023-05-07T10:13:54;0.63;;;0.43;;
44646;SDS011;56315;-33.902;151.160;2023-05-07T10:16:21;1.85;;;0.68;;
44646;SDS011;56315;-33.902;151.160;2023-05-07T10:18:50;0.70;;;0.57;;
44646;SDS011;56315;-33.902;151.160;2023-05-07T10:21:19;0.73;;;0.60;;
44646;SDS011;56315;-33.902;151.160;2023-05-07T10:23:53;0.85;;;0.55;;
44646;SDS011;56315;-33.902;151.160;2023-05-07T10:26:27;1.25;;;0.57;;
44646;SDS011;56315;-33.902;151.160;2023-05-07T10:34:53;0.40;;;0.40;;
44646;SDS011;56315;-33.902;151.160;2023-05-07T10:37:23;1.08;;;0.30;;
44646;SDS011;56315;-33.902;151.160;2023-05-07T10:39:52;0.47;;;0.40;;
44646;SDS011;56315;-33.902;151.160;2023-05-07T10:42:19;0.25;;;0.20;;
44646;SDS011;56315;-33.902;151.160;2023-05-07T10:44:46;1.45;;;0.20;;
44646;SDS011;56315;-33.902;151.160;2023-05-07T10:47:14;0.30;;;0.20;;
44646;SDS011;56315;-33.902;151.160;2023-05-07T10:52:17;0.43;;;0.40;;
44646;SDS011;56315;-33.902;151.160;2023-05-07T10:54:46;1.20;;;0.40;;
44646;SDS011;56315;-33.902;151.160;2023-05-07T10:57:34;1.20;;;0.93;;
44646;SDS011;56315;-33.902;151.160;2023-05-07T11:00:02;2.70;;;1.67;;
44646;SDS011;56315;-33.902;151.160;2023-05-07T11:03:04;0.80;;;0.73;;
44646;SDS011;56315;-33.902;151.160;2023-05-07T11:05:31;0.22;;;0.22;;
44646;SDS011;56315;-33.902;151.160;2023-05-07T11:08:00;0.60;;;0.25;;
44646;SDS011;56315;-33.902;151.160;2023-05-07T11:13:18;0.20;;;0.20;;
44646;SDS011;56315;-33.902;151.160;2023-05-07T11:16:22;0.20;;;0.20;;
44646;SDS011;56315;-33.902;151.160;2023-05-07T11:18:55;0.22;;;0.20;;
44646;SDS011;56315;-33.902;151.160;2023-05-07T11:21:41;0.10;;;0.10;;
44646;SDS011;56315;-33.902;151.160;2023-05-07T11:24:09;1.55;;;0.13;;
44646;SDS011;56315;-33.902;151.160;2023-05-07T11:26:43;1.20;;;0.10;;
44646;SDS011;56315;-33.902;151.160;2023-05-07T11:29:18;0.63;;;0.10;;
44646;SDS011;56315;-33.902;151.160;2023-05-07T11:31:53;0.60;;;0.20;;
44646;SDS011;56315;-33.902;151.160;2023-05-07T11:34:21;1.42;;;0.20;;
44646;SDS011;56315;-33.902;151.160;2023-05-07T11:36:49;0.50;;;0.10;;
44646;SDS011;56315;-33.902;151.160;2023-05-07T11:39:35;0.10;;;0.10;;
44646;SDS011;56315;-33.902;151.160;2023-05-07T11:42:02;0.50;;;0.30;;
44646;SDS011;56315;-33.902;151.160;2023-05-07T11:44:42;0.10;;;0.10;;
44646;SDS011;56315;-33.902;151.160;2023-05-07T11:47:11;0.25;;;0.13;;
44646;SDS011;56315;-33.902;151.160;2023-05-07T11:49:53;1.05;;;0.13;;
44646;SDS011;56315;-33.902;151.160;2023-05-07T11:52:21;2.03;;;0.52;;
44646;SDS011;56315;-33.902;151.160;2023-05-07T11:54:50;1.50;;;0.15;;
44646;SDS011;56315;-33.902;151.160;2023-05-07T11:57:22;1.63;;;0.35;;
44646;SDS011;56315;-33.902;151.160;2023-05-07T11:59:56;1.05;;;0.10;;
44646;SDS011;56315;-33.902;151.160;2023-05-07T12:02:25;1.15;;;0.30;;
44646;SDS011;56315;-33.902;151.160;2023-05-07T12:04:53;2.47;;;0.45;;
44646;SDS011;56315;-33.902;151.160;2023-05-07T12:07:21;2.85;;;0.40;;
44646;SDS011;56315;-33.902;151.160;2023-05-07T12:09:49;3.05;;;0.32;;
44646;SDS011;56315;-33.902;151.160;2023-05-07T12:12:17;3.05;;;0.30;;
44646;SDS011;56315;-33.902;151.160;2023-05-07T12:14:45;1.92;;;0.70;;
44646;SDS011;56315;-33.902;151.160;2023-05-07T12:17:13;2.67;;;0.50;;
44646;SDS011;56315;-33.902;151.160;2023-05-07T12:19:42;2.90;;;0.20;;
44646;SDS011;56315;-33.902;151.160;2023-05-07T12:22:10;2.50;;;0.28;;
44646;SDS011;56315;-33.902;151.160;2023-05-07T12:24:48;1.15;;;0.20;;
44646;SDS011;56315;-33.902;151.160;2023-05-07T12:27:22;1.95;;;0.38;;
44646;SDS011;56315;-33.902;151.160;2023-05-07T12:29:50;1.20;;;0.43;;
44646;SDS011;56315;-33.902;151.160;2023-05-07T12:32:18;3.05;;;0.30;;
44646;SDS011;56315;-33.902;151.160;2023-05-07T12:34:50;2.00;;;0.65;;
44646;SDS011;56315;-33.902;151.160;2023-05-07T12:37:22;2.42;;;0.47;;
44646;SDS011;56315;-33.902;151.160;2023-05-07T12:40:07;4.00;;;0.50;;
44646;SDS011;56315;-33.902;151.160;2023-05-07T12:42:36;1.38;;;0.50;;
44646;SDS011;56315;-33.902;151.160;2023-05-07T12:45:10;1.25;;;0.30;;
44646;SDS011;56315;-33.902;151.160;2023-05-07T12:47:38;2.35;;;0.40;;
44646;SDS011;56315;-33.902;151.160;2023-05-07T12:50:09;2.42;;;0.35;;
44646;SDS011;56315;-33.902;151.160;2023-05-07T12:52:37;2.55;;;0.40;;
44646;SDS011;56315;-33.902;151.160;2023-05-07T12:55:07;2.53;;;0.22;;
44646;SDS011;56315;-33.902;151.160;2023-05-07T12:57:39;0.25;;;0.17;;
44646;SDS011;56315;-33.902;151.160;2023-05-07T13:00:07;0.45;;;0.17;;
44646;SDS011;56315;-33.902;151.160;2023-05-07T13:02:38;0.55;;;0.25;;
44646;SDS011;56315;-33.902;151.160;2023-05-07T13:05:07;0.70;;;0.30;;
44646;SDS011;56315;-33.902;151.160;2023-05-07T13:07:35;0.22;;;0.10;;
44646;SDS011;56315;-33.902;151.160;2023-05-07T13:10:03;2.15;;;0.52;;
44646;SDS011;56315;-33.902;151.160;2023-05-07T13:12:31;0.82;;;0.38;;
44646;SDS011;56315;-33.902;151.160;2023-05-07T13:14:58;0.90;;;0.30;;
44646;SDS011;56315;-33.902;151.160;2023-05-07T13:17:25;1.42;;;0.40;;
44646;SDS011;56315;-33.902;151.160;2023-05-07T13:19:52;2.28;;;0.50;;
44646;SDS011;56315;-33.902;151.160;2023-05-07T13:22:20;0.63;;;0.30;;
44646;SDS011;56315;-33.902;151.160;2023-05-07T13:24:47;2.10;;;0.30;;
44646;SDS011;56315;-33.902;151.160;2023-05-07T13:27:14;1.15;;;0.50;;
44646;SDS011;56315;-33.902;151.160;2023-05-07T13:29:41;1.98;;;0.43;;
44646;SDS011;56315;-33.902;151.160;2023-05-07T13:32:08;1.17;;;0.50;;
44646;SDS011;56315;-33.902;151.160;2023-05-07T13:34:36;1.58;;;0.40;;
44646;SDS011;56315;-33.902;151.160;2023-05-07T13:37:03;0.57;;;0.20;;
44646;SDS011;56315;-33.902;151.160;2023-05-07T13:39:30;0.20;;;0.20;;
44646;SDS011;56315;-33.902;151.160;2023-05-07T13:41:57;0.32;;;0.20;;
44646;SDS011;56315;-33.902;151.160;2023-05-07T13:44:25;0.82;;;0.20;;
44646;SDS011;56315;-33.902;151.160;2023-05-07T13:46:52;1.25;;;0.20;;
44646;SDS011;56315;-33.902;151.160;2023-05-07T13:49:20;0.65;;;0.30;;
44646;SDS011;56315;-33.902;151.160;2023-05-07T13:51:47;1.10;;;0.30;;
44646;SDS011;56315;-33.902;151.160;2023-05-07T13:54:14;0.95;;;0.30;;
44646;SDS011;56315;-33.902;151.160;2023-05-07T13:56:41;1.27;;;0.20;;
44646;SDS011;56315;-33.902;151.160;2023-05-07T13:59:09;0.50;;;0.20;;
44646;SDS011;56315;-33.902;151.160;2023-05-07T14:01:36;0.50;;;0.30;;
44646;SDS011;56315;-33.902;151.160;2023-05-07T14:04:03;0.43;;;0.25;;
44646;SDS011;56315;-33.902;151.160;2023-05-07T14:06:30;1.38;;;0.20;;
44646;SDS011;56315;-33.902;151.160;2023-05-07T14:08:58;0.13;;;0.10;;
44646;SDS011;56315;-33.902;151.160;2023-05-07T14:11:25;0.90;;;0.20;;
44646;SDS011;56315;-33.902;151.160;2023-05-07T14:13:52;1.33;;;0.32;;
44646;SDS011;56315;-33.902;151.160;2023-05-07T14:16:22;0.68;;;0.32;;
44646;SDS011;56315;-33.902;151.160;2023-05-07T14:18:49;0.80;;;0.30;;
44646;SDS011;56315;-33.902;151.160;2023-05-07T14:21:16;0.20;;;0.13;;
44646;SDS011;56315;-33.902;151.160;2023-05-07T14:23:43;2.13;;;0.30;;
44646;SDS011;56315;-33.902;151.160;2023-05-07T14:26:11;0.75;;;0.25;;